createdAt,value
2023-05-20T00:04:57.776Z,99284.19
2023-05-20T00:10:02.006Z,99276.66
2023-05-20T00:15:09.041Z,99270.13
2023-05-20T00:20:13.630Z,99271.91
2023-05-20T00:25:17.654Z,99263.91
2023-05-20T00:30:23.860Z,99253.91
2023-05-20T00:35:28.272Z,99252.63
2023-05-20T00:40:32.442Z,99249.00
2023-05-20T00:45:38.791Z,99250.13
2023-05-20T00:50:42.784Z,99249.00
2023-05-20T00:55:47.065Z,99244.25
2023-05-20T01:00:52.848Z,99247.81
2023-05-20T01:05:57.111Z,99247.03
2023-05-20T01:11:07.858Z,99246.44
2023-05-20T01:16:14.447Z,99237.41
2023-05-20T01:21:19.617Z,99240.84
2023-05-20T01:26:27.446Z,99238.06
2023-05-20T01:31:36.539Z,99237.91
2023-05-20T01:36:41.835Z,99236.41
2023-05-20T01:41:47.543Z,99227.94
2023-05-20T01:46:52.105Z,99233.69
2023-05-20T01:51:56.391Z,99226.63
2023-05-20T01:57:03.217Z,99216.53
2023-05-20T02:02:07.284Z,99215.69
2023-05-20T02:07:12.659Z,99218.03
2023-05-20T02:12:17.989Z,99222.44
2023-05-20T02:17:22.160Z,99227.03
2023-05-20T02:22:26.137Z,99228.38
2023-05-20T02:27:31.641Z,99231.78
2023-05-20T02:32:37.299Z,99229.31
2023-05-20T02:37:41.817Z,99231.94
2023-05-20T02:42:48.483Z,99223.28
2023-05-20T02:47:53.144Z,99230.97
2023-05-20T02:52:57.780Z,99231.13
2023-05-20T02:58:04.137Z,99237.84
2023-05-20T03:03:11.210Z,99240.41
2023-05-20T03:08:15.373Z,99229.78
2023-05-20T03:13:21.142Z,99230.66
2023-05-20T03:18:25.434Z,99239.66
2023-05-20T03:23:29.557Z,99237.03
2023-05-20T03:28:35.148Z,99233.63
2023-05-20T03:33:40.194Z,99231.16
2023-05-20T03:38:44.903Z,99241.19
2023-05-20T03:43:50.594Z,99246.91
2023-05-20T03:48:54.854Z,99244.47
2023-05-20T03:53:59.202Z,99246.91
2023-05-20T03:59:04.824Z,99246.44
2023-05-20T04:04:09.507Z,99258.72
2023-05-20T04:09:13.927Z,99264.63
2023-05-20T04:14:20.449Z,99262.84
2023-05-20T04:19:28.700Z,99263.50
2023-05-20T04:24:33.139Z,99258.63
2023-05-20T04:29:38.928Z,99263.22
2023-05-20T04:34:45.203Z,99263.56
2023-05-20T04:39:51.138Z,99274.84
2023-05-20T04:44:56.867Z,99280.91
2023-05-20T04:50:00.811Z,99278.63
2023-05-20T04:55:05.736Z,99267.97
2023-05-20T05:00:13.375Z,99262.91
2023-05-20T05:05:17.902Z,99266.38
2023-05-20T05:10:23.383Z,99265.41
2023-05-20T05:15:29.386Z,99262.97
2023-05-20T05:20:33.775Z,99270.84
2023-05-20T05:25:37.754Z,99262.66
2023-05-20T05:30:43.500Z,99269.53
2023-05-20T05:35:48.103Z,99273.78
2023-05-20T05:40:52.376Z,99271.19
2023-05-20T05:45:58.343Z,99272.34
2023-05-20T05:51:02.773Z,99274.31
2023-05-20T05:56:08.228Z,99271.03
2023-05-20T06:01:14.076Z,99267.13
2023-05-20T06:06:18.446Z,99270.56
2023-05-20T06:11:24.175Z,99265.66
2023-05-20T06:16:30.286Z,99263.53
2023-05-20T06:21:37.090Z,99274.97
2023-05-20T06:26:41.232Z,99269.38
2023-05-20T06:31:47.130Z,99267.22
2023-05-20T06:36:51.681Z,99266.16
2023-05-20T06:41:56.188Z,99266.22
2023-05-20T06:47:09.138Z,99266.34
2023-05-20T06:52:14.151Z,99264.81
2023-05-20T06:57:18.790Z,99267.16
2023-05-20T07:02:24.248Z,99271.34
2023-05-20T07:07:28.651Z,99261.13
2023-05-20T07:12:36.160Z,99258.16
2023-05-20T07:17:42.989Z,99246.78
2023-05-20T07:22:48.756Z,99260.69
2023-05-20T07:27:59.963Z,99261.09
2023-05-20T07:33:05.819Z,99251.38
2023-05-20T07:38:11.071Z,99261.44
2023-05-20T07:43:16.234Z,99251.41
2023-05-20T07:48:22.230Z,99252.59
2023-05-20T07:53:26.188Z,99248.38
2023-05-20T07:58:32.605Z,99245.22
2023-05-20T08:03:38.246Z,99232.53
2023-05-20T08:08:47.758Z,99232.53
2023-05-20T08:13:57.522Z,99222.66
2023-05-20T08:19:06.197Z,99223.69
2023-05-20T08:24:10.423Z,99225.19
2023-05-20T08:29:14.588Z,99222.66
2023-05-20T08:34:20.179Z,99221.44
2023-05-20T08:39:24.236Z,99221.69
2023-05-20T08:44:29.051Z,99222.41
2023-05-20T08:49:34.996Z,99224.94
2023-05-20T08:54:44.653Z,99217.31
2023-05-20T08:59:48.770Z,99217.69
2023-05-20T09:04:54.290Z,99220.56
2023-05-20T09:09:58.976Z,99221.06
2023-05-20T09:15:03.123Z,99223.03
2023-05-20T09:20:12.702Z,99230.47
2023-05-20T09:25:21.614Z,99219.53
2023-05-20T09:30:27.314Z,99219.16
2023-05-20T09:35:38.204Z,99220.97
2023-05-20T09:40:43.764Z,99225.16
2023-05-20T09:45:48.511Z,99219.75
2023-05-20T09:50:54.911Z,99215.97
2023-05-20T09:55:59.480Z,99215.78
2023-05-20T10:01:03.889Z,99206.34
2023-05-20T10:06:28.412Z,99201.59
2023-05-20T10:11:38.550Z,99203.69
2023-05-20T10:16:46.595Z,99208.38
2023-05-20T10:22:00.168Z,99206.56
2023-05-20T10:27:06.576Z,99204.13
2023-05-20T10:32:10.888Z,99203.50
2023-05-20T10:37:27.880Z,99200.81
2023-05-20T10:42:32.663Z,99198.56
2023-05-20T10:47:37.188Z,99184.56
2023-05-20T10:52:43.148Z,99183.72
2023-05-20T10:57:47.199Z,99169.53
2023-05-20T11:02:52.013Z,99165.34
2023-05-20T11:08:08.091Z,99162.72
2023-05-20T11:13:15.658Z,99147.16
2023-05-20T11:18:19.733Z,99153.44
2023-05-20T11:23:25.020Z,99138.63
2023-05-20T11:28:29.085Z,99141.50
2023-05-20T11:33:33.178Z,99127.28
2023-05-20T11:38:38.527Z,99131.28
2023-05-20T11:43:43.116Z,99126.28
2023-05-20T11:48:53.022Z,99110.34
2023-05-20T11:54:02.772Z,99103.38
2023-05-20T11:59:07.613Z,99114.69
2023-05-20T12:04:12.094Z,99100.97
2023-05-20T12:09:17.719Z,99102.53
2023-05-20T12:14:21.869Z,99093.09
2023-05-20T12:19:26.113Z,99091.59
2023-05-20T12:24:31.893Z,99090.13
2023-05-20T12:29:35.742Z,99087.63
2023-05-20T12:34:39.810Z,99087.47
2023-05-20T12:39:45.098Z,99083.38
2023-05-20T12:44:49.620Z,99069.56
2023-05-20T12:49:53.517Z,99067.13
2023-05-20T12:54:58.811Z,99062.94
2023-05-20T13:00:02.919Z,99064.16
2023-05-20T13:05:10.486Z,99050.13
2023-05-20T13:10:17.232Z,99050.47
2023-05-20T13:15:21.369Z,99038.47
2023-05-20T13:20:25.292Z,99043.00
2023-05-20T13:25:31.895Z,99037.53
2023-05-20T13:30:36.561Z,99036.53
2023-05-20T13:35:40.671Z,99033.50
2023-05-20T13:40:46.492Z,99025.94
2023-05-20T13:45:50.804Z,99020.56
2023-05-20T13:50:54.712Z,99021.94
2023-05-20T13:56:00.088Z,99031.84
2023-05-20T14:01:04.681Z,99014.88
2023-05-20T14:06:08.619Z,99011.00
2023-05-20T14:11:14.385Z,99003.34
2023-05-20T14:16:19.275Z,99002.88
2023-05-20T14:21:23.472Z,99003.28
2023-05-20T14:26:28.719Z,98990.47
2023-05-20T14:31:32.729Z,98985.25
2023-05-20T14:36:36.832Z,98981.28
2023-05-20T14:41:42.291Z,98981.19
2023-05-20T14:46:46.883Z,98978.81
2023-05-20T14:51:51.127Z,98973.19
2023-05-20T14:56:56.392Z,98974.56
2023-05-20T15:02:00.752Z,98975.63
2023-05-20T15:07:04.918Z,98973.66
2023-05-20T15:12:11.019Z,98966.69
2023-05-20T15:17:15.452Z,98965.78
2023-05-20T15:22:19.515Z,98959.63
2023-05-20T15:27:24.957Z,98954.00
2023-05-20T15:32:29.327Z,98952.38
2023-05-20T15:37:33.323Z,98938.06
2023-05-20T15:42:38.776Z,98936.03
2023-05-20T15:47:43.368Z,98927.00
2023-05-20T15:52:47.563Z,98903.59
2023-05-20T15:57:53.318Z,98907.75
2023-05-20T16:02:57.632Z,98909.97
2023-05-20T16:08:23.876Z,98908.13
2023-05-20T16:13:29.387Z,98909.16
2023-05-20T16:18:33.265Z,98907.59
2023-05-20T16:23:37.395Z,98910.16
2023-05-20T16:28:43.923Z,98905.44
2023-05-20T16:33:48.313Z,98899.13
2023-05-20T16:38:52.426Z,98896.38
2023-05-20T16:43:57.726Z,98900.78
2023-05-20T16:49:01.949Z,98901.56
2023-05-20T16:54:05.893Z,98898.31
2023-05-20T16:59:14.663Z,98911.69
2023-05-20T17:04:19.131Z,98908.19
2023-05-20T17:09:23.187Z,98912.66
2023-05-20T17:14:28.432Z,98907.69
2023-05-20T17:19:32.474Z,98914.78
2023-05-20T17:24:37.542Z,98910.06
2023-05-20T17:29:42.836Z,98916.63
2023-05-20T17:34:46.940Z,98916.06
2023-05-20T17:39:50.887Z,98908.50
2023-05-20T17:44:56.500Z,98902.16
2023-05-20T17:50:02.468Z,98900.25
2023-05-20T17:55:08.144Z,98897.06
2023-05-20T18:00:15.586Z,98892.84
2023-05-20T18:05:28.399Z,98892.50
2023-05-20T18:10:32.833Z,98889.66
2023-05-20T18:15:39.391Z,98892.22
2023-05-20T18:20:45.051Z,98897.06
2023-05-20T18:25:48.966Z,98893.94
2023-05-20T18:30:52.999Z,98895.66
2023-05-20T18:35:58.354Z,98894.53
2023-05-20T18:41:02.220Z,98906.00
2023-05-20T18:46:06.587Z,98917.16
2023-05-20T18:51:11.836Z,98914.19
2023-05-20T18:56:16.178Z,98914.56
2023-05-20T19:01:21.062Z,98928.78
2023-05-20T19:06:26.681Z,98927.59
2023-05-20T19:11:31.733Z,98918.66
2023-05-20T19:16:36.518Z,98924.75
2023-05-20T19:21:43.767Z,98919.28
2023-05-20T19:26:47.686Z,98914.78
2023-05-20T19:31:51.578Z,98915.19
2023-05-20T19:36:57.625Z,98914.56
2023-05-20T19:42:02.024Z,98913.34
2023-05-20T19:47:08.153Z,98918.78
2023-05-20T19:52:13.442Z,98927.72
2023-05-20T19:57:17.399Z,98938.44
2023-05-20T20:02:21.346Z,98931.28
2023-05-20T20:07:27.373Z,98933.88
2023-05-20T20:12:31.536Z,98933.25
2023-05-20T20:17:37.357Z,98931.53
2023-05-20T20:22:43.921Z,98923.16
2023-05-20T20:27:48.656Z,98923.47
2023-05-20T20:32:53.491Z,98931.47
2023-05-20T20:38:00.042Z,98921.50
2023-05-20T20:43:04.952Z,98925.38
2023-05-20T20:48:09.054Z,98927.97
2023-05-20T20:53:15.893Z,98927.72
2023-05-20T20:58:20.049Z,98930.09
2023-05-20T21:03:26.438Z,98930.19
2023-05-20T21:08:31.973Z,98926.00
2023-05-20T21:13:37.143Z,98921.94
2023-05-20T21:18:43.194Z,98915.78
2023-05-20T21:23:49.258Z,98921.00
2023-05-20T21:28:53.325Z,98925.75
2023-05-20T21:33:57.185Z,98927.56
2023-05-20T21:39:02.430Z,98935.00
2023-05-20T21:44:06.605Z,98925.84
2023-05-20T21:49:10.740Z,98923.16
2023-05-20T21:54:16.251Z,98921.03
2023-05-20T21:59:20.155Z,98923.19
2023-05-20T22:04:25.005Z,98924.78
2023-05-20T22:09:30.481Z,98928.31
2023-05-20T22:14:34.717Z,98933.03
2023-05-20T22:19:40.204Z,98924.63
2023-05-20T22:24:45.840Z,98914.19
2023-05-20T22:29:50.818Z,98909.88
2023-05-20T22:34:58.635Z,98917.47
2023-05-20T22:40:05.009Z,98912.84
2023-05-20T22:45:10.693Z,98904.41
2023-05-20T22:50:14.650Z,98906.75
2023-05-20T22:55:19.932Z,98911.63
2023-05-20T23:00:23.925Z,98901.22
2023-05-20T23:05:30.033Z,98901.03
2023-05-20T23:10:35.630Z,98900.03
2023-05-20T23:15:41.081Z,98895.28
2023-05-20T23:20:45.812Z,98898.75
2023-05-20T23:25:51.291Z,98893.84
2023-05-20T23:30:57.014Z,98894.31
2023-05-20T23:36:01.150Z,98891.41
2023-05-20T23:41:06.838Z,98896.38
2023-05-20T23:46:11.057Z,98896.44
2023-05-20T23:51:16.397Z,98896.91
2023-05-20T23:56:22.405Z,98898.06
